sensor_id;sensor_type;location;lat;lon;timestamp;P1;durP1;ratioP1;P2;durP2;ratioP2
69937;SDS011;57248;47.320;15.998;2024-02-04T00:00:05;5.50;;;1.33;;
69937;SDS011;57248;47.320;15.998;2024-02-04T00:02:38;2.23;;;0.97;;
69937;SDS011;57248;47.320;15.998;2024-02-04T00:05:10;2.97;;;1.00;;
69937;SDS011;57248;47.320;15.998;2024-02-04T00:07:43;4.63;;;1.45;;
69937;SDS011;57248;47.320;15.998;2024-02-04T00:10:15;5.65;;;1.55;;
69937;SDS011;57248;47.320;15.998;2024-02-04T00:12:47;5.40;;;1.90;;
69937;SDS011;57248;47.320;15.998;2024-02-04T00:15:19;2.53;;;0.80;;
69937;SDS011;57248;47.320;15.998;2024-02-04T00:17:51;8.10;;;1.02;;
69937;SDS011;57248;47.320;15.998;2024-02-04T00:20:16;3.43;;;1.03;;
69937;SDS011;57248;47.320;15.998;2024-02-04T00:22:48;12.60;;;1.70;;
69937;SDS011;57248;47.320;15.998;2024-02-04T00:25:20;3.63;;;1.20;;
69937;SDS011;57248;47.320;15.998;2024-02-04T00:27:52;4.78;;;1.25;;
69937;SDS011;57248;47.320;15.998;2024-02-04T00:30:25;4.00;;;1.33;;
69937;SDS011;57248;47.320;15.998;2024-02-04T00:32:58;7.53;;;1.77;;
69937;SDS011;57248;47.320;15.998;2024-02-04T00:35:35;4.50;;;1.23;;
69937;SDS011;57248;47.320;15.998;2024-02-04T00:38:08;5.55;;;1.15;;
69937;SDS011;57248;47.320;15.998;2024-02-04T00:40:43;7.40;;;1.40;;
69937;SDS011;57248;47.320;15.998;2024-02-04T00:43:08;3.60;;;1.50;;
69937;SDS011;57248;47.320;15.998;2024-02-04T00:45:41;5.00;;;1.73;;
69937;SDS011;57248;47.320;15.998;2024-02-04T00:48:13;4.25;;;1.55;;
69937;SDS011;57248;47.320;15.998;2024-02-04T00:50:45;4.85;;;0.90;;
69937;SDS011;57248;47.320;15.998;2024-02-04T00:53:23;3.50;;;0.67;;
69937;SDS011;57248;47.320;15.998;2024-02-04T00:55:59;2.65;;;0.90;;
69937;SDS011;57248;47.320;15.998;2024-02-04T00:58:32;5.22;;;0.85;;
69937;SDS011;57248;47.320;15.998;2024-02-04T01:00:58;3.25;;;1.08;;
69937;SDS011;57248;47.320;15.998;2024-02-04T01:03:31;2.92;;;0.88;;
69937;SDS011;57248;47.320;15.998;2024-02-04T01:06:03;4.93;;;2.17;;
69937;SDS011;57248;47.320;15.998;2024-02-04T01:08:35;3.20;;;1.10;;
69937;SDS011;57248;47.320;15.998;2024-02-04T01:11:09;1.88;;;0.52;;
69937;SDS011;57248;47.320;15.998;2024-02-04T01:13:41;6.85;;;1.63;;
69937;SDS011;57248;47.320;15.998;2024-02-04T01:16:14;5.60;;;2.00;;
69937;SDS011;57248;47.320;15.998;2024-02-04T01:18:46;4.97;;;1.33;;
69937;SDS011;57248;47.320;15.998;2024-02-04T01:21:18;3.95;;;0.93;;
69937;SDS011;57248;47.320;15.998;2024-02-04T01:23:50;2.67;;;0.85;;
69937;SDS011;57248;47.320;15.998;2024-02-04T01:26:22;5.60;;;1.80;;
69937;SDS011;57248;47.320;15.998;2024-02-04T01:28:56;5.68;;;1.58;;
69937;SDS011;57248;47.320;15.998;2024-02-04T01:31:28;3.80;;;0.40;;
69937;SDS011;57248;47.320;15.998;2024-02-04T01:34:00;4.50;;;1.50;;
69937;SDS011;57248;47.320;15.998;2024-02-04T01:36:32;1.98;;;0.98;;
69937;SDS011;57248;47.320;15.998;2024-02-04T01:38:57;3.67;;;0.47;;
69937;SDS011;57248;47.320;15.998;2024-02-04T01:41:29;5.30;;;1.42;;
69937;SDS011;57248;47.320;15.998;2024-02-04T01:44:01;3.00;;;1.00;;
69937;SDS011;57248;47.320;15.998;2024-02-04T01:46:33;4.18;;;1.20;;
69937;SDS011;57248;47.320;15.998;2024-02-04T01:49:05;2.70;;;0.55;;
69937;SDS011;57248;47.320;15.998;2024-02-04T01:51:37;2.43;;;0.77;;
69937;SDS011;57248;47.320;15.998;2024-02-04T01:54:16;4.63;;;0.88;;
69937;SDS011;57248;47.320;15.998;2024-02-04T01:56:49;1.52;;;0.60;;
69937;SDS011;57248;47.320;15.998;2024-02-04T01:59:22;2.35;;;1.08;;
69937;SDS011;57248;47.320;15.998;2024-02-04T02:02:02;3.13;;;0.88;;
69937;SDS011;57248;47.320;15.998;2024-02-04T02:04:35;3.23;;;1.00;;
69937;SDS011;57248;47.320;15.998;2024-02-04T02:07:07;2.65;;;1.25;;
69937;SDS011;57248;47.320;15.998;2024-02-04T02:09:48;2.72;;;0.70;;
69937;SDS011;57248;47.320;15.998;2024-02-04T02:12:24;7.07;;;2.03;;
69937;SDS011;57248;47.320;15.998;2024-02-04T02:15:05;2.92;;;0.90;;
69937;SDS011;57248;47.320;15.998;2024-02-04T02:17:48;7.33;;;1.53;;
69937;SDS011;57248;47.320;15.998;2024-02-04T02:20:29;8.27;;;1.42;;
69937;SDS011;57248;47.320;15.998;2024-02-04T02:23:53;3.45;;;0.82;;
69937;SDS011;57248;47.320;15.998;2024-02-04T02:26:23;3.10;;;0.95;;
69937;SDS011;57248;47.320;15.998;2024-02-04T02:28:55;2.03;;;0.60;;
69937;SDS011;57248;47.320;15.998;2024-02-04T02:31:20;1.83;;;0.33;;
69937;SDS011;57248;47.320;15.998;2024-02-04T02:33:53;3.80;;;0.88;;
69937;SDS011;57248;47.320;15.998;2024-02-04T02:36:26;3.15;;;0.82;;
69937;SDS011;57248;47.320;15.998;2024-02-04T02:39:18;4.33;;;1.23;;
69937;SDS011;57248;47.320;15.998;2024-02-04T02:41:57;4.38;;;0.80;;
69937;SDS011;57248;47.320;15.998;2024-02-04T02:44:33;3.20;;;1.10;;
69937;SDS011;57248;47.320;15.998;2024-02-04T02:47:07;2.88;;;0.55;;
69937;SDS011;57248;47.320;15.998;2024-02-04T02:49:40;1.30;;;0.50;;
69937;SDS011;57248;47.320;15.998;2024-02-04T02:52:18;3.37;;;1.03;;
69937;SDS011;57248;47.320;15.998;2024-02-04T02:54:51;1.85;;;0.80;;
69937;SDS011;57248;47.320;15.998;2024-02-04T02:57:16;3.33;;;0.88;;
69937;SDS011;57248;47.320;15.998;2024-02-04T02:59:50;0.83;;;0.20;;
69937;SDS011;57248;47.320;15.998;2024-02-04T03:02:22;0.98;;;0.20;;
69937;SDS011;57248;47.320;15.998;2024-02-04T03:04:54;2.70;;;0.47;;
69937;SDS011;57248;47.320;15.998;2024-02-04T03:07:26;2.42;;;0.47;;
69937;SDS011;57248;47.320;15.998;2024-02-04T03:09:52;2.00;;;0.30;;
69937;SDS011;57248;47.320;15.998;2024-02-04T03:12:26;1.90;;;0.47;;
69937;SDS011;57248;47.320;15.998;2024-02-04T03:14:58;1.75;;;0.45;;
69937;SDS011;57248;47.320;15.998;2024-02-04T03:17:30;0.93;;;0.20;;
69937;SDS011;57248;47.320;15.998;2024-02-04T03:20:02;3.35;;;0.60;;
69937;SDS011;57248;47.320;15.998;2024-02-04T03:22:34;3.75;;;0.73;;
69937;SDS011;57248;47.320;15.998;2024-02-04T03:25:07;2.42;;;0.65;;
69937;SDS011;57248;47.320;15.998;2024-02-04T03:27:39;2.55;;;0.68;;
69937;SDS011;57248;47.320;15.998;2024-02-04T03:30:12;4.20;;;0.40;;
69937;SDS011;57248;47.320;15.998;2024-02-04T03:32:44;3.80;;;0.60;;
69937;SDS011;57248;47.320;15.998;2024-02-04T03:35:16;2.10;;;0.30;;
69937;SDS011;57248;47.320;15.998;2024-02-04T03:37:48;0.70;;;0.30;;
69937;SDS011;57248;47.320;15.998;2024-02-04T03:40:13;3.27;;;0.57;;
69937;SDS011;57248;47.320;15.998;2024-02-04T03:42:46;2.33;;;0.77;;
69937;SDS011;57248;47.320;15.998;2024-02-04T03:45:18;1.05;;;0.35;;
69937;SDS011;57248;47.320;15.998;2024-02-04T03:47:50;1.33;;;0.47;;
69937;SDS011;57248;47.320;15.998;2024-02-04T03:50:22;2.70;;;0.82;;
69937;SDS011;57248;47.320;15.998;2024-02-04T03:52:54;10.10;;;0.60;;
69937;SDS011;57248;47.320;15.998;2024-02-04T03:55:39;0.93;;;0.10;;
69937;SDS011;57248;47.320;15.998;2024-02-04T03:58:12;0.98;;;0.13;;
69937;SDS011;57248;47.320;15.998;2024-02-04T04:00:37;1.33;;;0.20;;
69937;SDS011;57248;47.320;15.998;2024-02-04T04:03:09;2.35;;;0.70;;
69937;SDS011;57248;47.320;15.998;2024-02-04T04:05:41;1.07;;;0.33;;
69937;SDS011;57248;47.320;15.998;2024-02-04T04:08:13;2.38;;;0.57;;
69937;SDS011;57248;47.320;15.998;2024-02-04T04:10:45;1.15;;;0.45;;
69937;SDS011;57248;47.320;15.998;2024-02-04T04:13:17;1.92;;;0.40;;
69937;SDS011;57248;47.320;15.998;2024-02-04T04:15:50;3.53;;;0.40;;
69937;SDS011;57248;47.320;15.998;2024-02-04T04:18:23;1.30;;;0.30;;
69937;SDS011;57248;47.320;15.998;2024-02-04T04:20:55;0.30;;;0.03;;
69937;SDS011;57248;47.320;15.998;2024-02-04T04:23:27;1.55;;;0.25;;
69937;SDS011;57248;47.320;15.998;2024-02-04T04:25:59;1.83;;;0.82;;
69937;SDS011;57248;47.320;15.998;2024-02-04T04:28:24;3.77;;;1.10;;
69937;SDS011;57248;47.320;15.998;2024-02-04T04:30:57;3.33;;;0.63;;
69937;SDS011;57248;47.320;15.998;2024-02-04T04:33:29;0.80;;;0.20;;
69937;SDS011;57248;47.320;15.998;2024-02-04T04:36:02;1.27;;;0.20;;
69937;SDS011;57248;47.320;15.998;2024-02-04T04:38:34;4.22;;;0.40;;
69937;SDS011;57248;47.320;15.998;2024-02-04T04:41:06;2.95;;;0.40;;
69937;SDS011;57248;47.320;15.998;2024-02-04T04:43:38;2.30;;;0.57;;
69937;SDS011;57248;47.320;15.998;2024-02-04T04:46:10;2.35;;;0.45;;
69937;SDS011;57248;47.320;15.998;2024-02-04T04:48:42;3.53;;;0.47;;
69937;SDS011;57248;47.320;15.998;2024-02-04T04:51:21;2.28;;;0.77;;
69937;SDS011;57248;47.320;15.998;2024-02-04T04:54:00;3.13;;;0.60;;
69937;SDS011;57248;47.320;15.998;2024-02-04T04:56:37;1.42;;;0.38;;
69937;SDS011;57248;47.320;15.998;2024-02-04T04:59:11;1.23;;;0.20;;
69937;SDS011;57248;47.320;15.998;2024-02-04T05:01:46;1.27;;;0.20;;
69937;SDS011;57248;47.320;15.998;2024-02-04T05:04:19;1.00;;;0.45;;
69937;SDS011;57248;47.320;15.998;2024-02-04T05:06:44;0.70;;;0.25;;
69937;SDS011;57248;47.320;15.998;2024-02-04T05:09:17;1.53;;;0.40;;
69937;SDS011;57248;47.320;15.998;2024-02-04T05:11:49;1.02;;;0.15;;
69937;SDS011;57248;47.320;15.998;2024-02-04T05:14:21;0.55;;;0.00;;
69937;SDS011;57248;47.320;15.998;2024-02-04T05:16:53;0.95;;;0.30;;
69937;SDS011;57248;47.320;15.998;2024-02-04T05:19:25;7.07;;;0.70;;
69937;SDS011;57248;47.320;15.998;2024-02-04T05:21:57;1.40;;;0.30;;
69937;SDS011;57248;47.320;15.998;2024-02-04T05:24:29;1.38;;;0.35;;
69937;SDS011;57248;47.320;15.998;2024-02-04T05:27:01;2.65;;;0.35;;
69937;SDS011;57248;47.320;15.998;2024-02-04T05:29:33;1.02;;;0.20;;
69937;SDS011;57248;47.320;15.998;2024-02-04T05:32:05;1.92;;;0.63;;
69937;SDS011;57248;47.320;15.998;2024-02-04T05:34:46;2.07;;;0.20;;
69937;SDS011;57248;47.320;15.998;2024-02-04T05:37:18;1.58;;;0.30;;
69937;SDS011;57248;47.320;15.998;2024-02-04T05:39:51;9.07;;;0.40;;
69937;SDS011;57248;47.320;15.998;2024-02-04T05:42:23;1.20;;;0.38;;
69937;SDS011;57248;47.320;15.998;2024-02-04T05:44:56;1.42;;;0.47;;
69937;SDS011;57248;47.320;15.998;2024-02-04T05:47:28;1.17;;;0.37;;
69937;SDS011;57248;47.320;15.998;2024-02-04T05:50:00;1.48;;;0.30;;
69937;SDS011;57248;47.320;15.998;2024-02-04T05:52:32;1.60;;;0.38;;
69937;SDS011;57248;47.320;15.998;2024-02-04T05:55:18;1.27;;;0.10;;
69937;SDS011;57248;47.320;15.998;2024-02-04T05:57:51;2.53;;;0.30;;
69937;SDS011;57248;47.320;15.998;2024-02-04T06:00:23;4.90;;;0.70;;
69937;SDS011;57248;47.320;15.998;2024-02-04T06:02:57;1.67;;;0.25;;
69937;SDS011;57248;47.320;15.998;2024-02-04T06:05:29;1.75;;;0.60;;
69937;SDS011;57248;47.320;15.998;2024-02-04T06:08:01;1.05;;;0.30;;
69937;SDS011;57248;47.320;15.998;2024-02-04T06:10:33;1.33;;;0.47;;
69937;SDS011;57248;47.320;15.998;2024-02-04T06:13:05;1.00;;;0.30;;
69937;SDS011;57248;47.320;15.998;2024-02-04T06:15:41;2.47;;;0.52;;
69937;SDS011;57248;47.320;15.998;2024-02-04T06:18:13;0.93;;;0.45;;
69937;SDS011;57248;47.320;15.998;2024-02-04T06:20:38;0.73;;;0.10;;
69937;SDS011;57248;47.320;15.998;2024-02-04T06:23:10;0.45;;;0.10;;
69937;SDS011;57248;47.320;15.998;2024-02-04T06:25:42;1.85;;;0.13;;
69937;SDS011;57248;47.320;15.998;2024-02-04T06:28:14;6.22;;;0.20;;
69937;SDS011;57248;47.320;15.998;2024-02-04T06:30:39;1.80;;;0.73;;
69937;SDS011;57248;47.320;15.998;2024-02-04T06:33:12;1.55;;;0.43;;
69937;SDS011;57248;47.320;15.998;2024-02-04T06:35:44;0.50;;;0.03;;
69937;SDS011;57248;47.320;15.998;2024-02-04T06:38:16;1.35;;;0.63;;
69937;SDS011;57248;47.320;15.998;2024-02-04T06:40:48;1.48;;;0.25;;
69937;SDS011;57248;47.320;15.998;2024-02-04T06:43:13;1.70;;;0.10;;
69937;SDS011;57248;47.320;15.998;2024-02-04T06:45:45;1.02;;;0.20;;
69937;SDS011;57248;47.320;15.998;2024-02-04T06:48:19;0.30;;;0.00;;
69937;SDS011;57248;47.320;15.998;2024-02-04T06:50:52;2.22;;;0.17;;
69937;SDS011;57248;47.320;15.998;2024-02-04T06:53:24;3.30;;;0.63;;
69937;SDS011;57248;47.320;15.998;2024-02-04T06:56:03;1.67;;;0.43;;
69937;SDS011;57248;47.320;15.998;2024-02-04T06:58:37;1.15;;;0.35;;
69937;SDS011;57248;47.320;15.998;2024-02-04T07:01:14;1.45;;;0.40;;
69937;SDS011;57248;47.320;15.998;2024-02-04T07:03:48;3.92;;;0.40;;
69937;SDS011;57248;47.320;15.998;2024-02-04T07:06:23;0.30;;;0.00;;
69937;SDS011;57248;47.320;15.998;2024-02-04T07:08:48;0.30;;;0.00;;
69937;SDS011;57248;47.320;15.998;2024-02-04T07:11:20;2.30;;;0.50;;
69937;SDS011;57248;47.320;15.998;2024-02-04T07:13:52;1.05;;;0.20;;
69937;SDS011;57248;47.320;15.998;2024-02-04T07:16:30;2.70;;;0.90;;
69937;SDS011;57248;47.320;15.998;2024-02-04T07:19:03;0.77;;;0.30;;
69937;SDS011;57248;47.320;15.998;2024-02-04T07:21:36;1.20;;;0.17;;
69937;SDS011;57248;47.320;15.998;2024-02-04T07:24:10;2.17;;;0.10;;
69937;SDS011;57248;47.320;15.998;2024-02-04T07:26:42;1.38;;;0.38;;
69937;SDS011;57248;47.320;15.998;2024-02-04T07:29:14;1.20;;;0.28;;
69937;SDS011;57248;47.320;15.998;2024-02-04T07:31:47;2.00;;;0.60;;
69937;SDS011;57248;47.320;15.998;2024-02-04T07:34:19;1.95;;;0.38;;
69937;SDS011;57248;47.320;15.998;2024-02-04T07:36:51;2.00;;;0.43;;
69937;SDS011;57248;47.320;15.998;2024-02-04T07:39:24;2.55;;;0.90;;
69937;SDS011;57248;47.320;15.998;2024-02-04T07:41:59;1.67;;;0.60;;
69937;SDS011;57248;47.320;15.998;2024-02-04T07:44:32;1.10;;;0.20;;
69937;SDS011;57248;47.320;15.998;2024-02-04T07:47:04;2.47;;;0.70;;
69937;SDS011;57248;47.320;15.998;2024-02-04T07:49:36;1.10;;;0.33;;
69937;SDS011;57248;47.320;15.998;2024-02-04T07:52:10;0.75;;;0.20;;
69937;SDS011;57248;47.320;15.998;2024-02-04T07:54:49;1.30;;;0.20;;
69937;SDS011;57248;47.320;15.998;2024-02-04T07:57:21;0.93;;;0.20;;
69937;SDS011;57248;47.320;15.998;2024-02-04T07:59:53;2.47;;;0.30;;
69937;SDS011;57248;47.320;15.998;2024-02-04T08:02:25;0.93;;;0.10;;
69937;SDS011;57248;47.320;15.998;2024-02-04T08:04:57;0.70;;;0.10;;
69937;SDS011;57248;47.320;15.998;2024-02-04T08:07:23;0.50;;;0.00;;
69937;SDS011;57248;47.320;15.998;2024-02-04T08:09:55;0.50;;;0.03;;
69937;SDS011;57248;47.320;15.998;2024-02-04T08:12:27;0.93;;;0.10;;
69937;SDS011;57248;47.320;15.998;2024-02-04T08:14:53;0.10;;;0.00;;
69937;SDS011;57248;47.320;15.998;2024-02-04T08:17:26;0.28;;;0.00;;
69937;SDS011;57248;47.320;15.998;2024-02-04T08:20:00;0.20;;;0.00;;
69937;SDS011;57248;47.320;15.998;2024-02-04T08:22:40;0.32;;;0.00;;
69937;SDS011;57248;47.320;15.998;2024-02-04T08:25:13;0.98;;;0.10;;
69937;SDS011;57248;47.320;15.998;2024-02-04T08:27:45;0.20;;;0.00;;
69937;SDS011;57248;47.320;15.998;2024-02-04T08:30:17;0.35;;;0.10;;
69937;SDS011;57248;47.320;15.998;2024-02-04T08:32:50;0.85;;;0.15;;
69937;SDS011;57248;47.320;15.998;2024-02-04T08:35:23;1.95;;;0.30;;
69937;SDS011;57248;47.320;15.998;2024-02-04T08:37:55;3.30;;;0.80;;
69937;SDS011;57248;47.320;15.998;2024-02-04T08:40:20;2.63;;;0.50;;
69937;SDS011;57248;47.320;15.998;2024-02-04T08:42:52;2.45;;;0.45;;
69937;SDS011;57248;47.320;15.998;2024-02-04T08:45:24;0.35;;;0.10;;
69937;SDS011;57248;47.320;15.998;2024-02-04T08:47:56;0.50;;;0.10;;
69937;SDS011;57248;47.320;15.998;2024-02-04T08:50:29;0.40;;;0.10;;
69937;SDS011;57248;47.320;15.998;2024-02-04T08:53:09;0.45;;;0.10;;
69937;SDS011;57248;47.320;15.998;2024-02-04T08:55:41;0.32;;;0.10;;
69937;SDS011;57248;47.320;15.998;2024-02-04T08:58:14;1.98;;;0.50;;
69937;SDS011;57248;47.320;15.998;2024-02-04T09:00:47;1.20;;;0.40;;
69937;SDS011;57248;47.320;15.998;2024-02-04T09:03:20;1.00;;;0.35;;
69937;SDS011;57248;47.320;15.998;2024-02-04T09:05:52;4.05;;;0.98;;
69937;SDS011;57248;47.320;15.998;2024-02-04T09:08:17;1.10;;;0.40;;
69937;SDS011;57248;47.320;15.998;2024-02-04T09:10:50;0.52;;;0.17;;
69937;SDS011;57248;47.320;15.998;2024-02-04T09:13:22;0.50;;;0.10;;
69937;SDS011;57248;47.320;15.998;2024-02-04T09:15:54;0.57;;;0.20;;
69937;SDS011;57248;47.320;15.998;2024-02-04T09:18:26;0.40;;;0.10;;
69937;SDS011;57248;47.320;15.998;2024-02-04T09:20:58;0.75;;;0.20;;
69937;SDS011;57248;47.320;15.998;2024-02-04T09:23:31;0.80;;;0.30;;
69937;SDS011;57248;47.320;15.998;2024-02-04T09:26:03;1.35;;;0.30;;
69937;SDS011;57248;47.320;15.998;2024-02-04T09:28:35;1.15;;;0.30;;
69937;SDS011;57248;47.320;15.998;2024-02-04T09:31:10;0.60;;;0.20;;
69937;SDS011;57248;47.320;15.998;2024-02-04T09:33:42;0.57;;;0.20;;
69937;SDS011;57248;47.320;15.998;2024-02-04T09:36:14;0.20;;;0.00;;
69937;SDS011;57248;47.320;15.998;2024-02-04T09:38:46;0.20;;;0.00;;
69937;SDS011;57248;47.320;15.998;2024-02-04T09:41:18;0.77;;;0.10;;
69937;SDS011;57248;47.320;15.998;2024-02-04T09:43:50;0.63;;;0.10;;
69937;SDS011;57248;47.320;15.998;2024-02-04T09:46:22;0.93;;;0.08;;
69937;SDS011;57248;47.320;15.998;2024-02-04T09:48:47;0.40;;;0.10;;
69937;SDS011;57248;47.320;15.998;2024-02-04T09:51:25;0.30;;;0.00;;
69937;SDS011;57248;47.320;15.998;2024-02-04T09:54:01;0.20;;;0.00;;
69937;SDS011;57248;47.320;15.998;2024-02-04T09:56:45;0.20;;;0.00;;
69937;SDS011;57248;47.320;15.998;2024-02-04T09:59:19;0.43;;;0.00;;
69937;SDS011;57248;47.320;15.998;2024-02-04T10:01:44;0.10;;;0.00;;
69937;SDS011;57248;47.320;15.998;2024-02-04T10:04:17;0.10;;;0.00;;
69937;SDS011;57248;47.320;15.998;2024-02-04T10:06:49;0.10;;;0.00;;
69937;SDS011;57248;47.320;15.998;2024-02-04T10:09:22;0.10;;;0.00;;
69937;SDS011;57248;47.320;15.998;2024-02-04T10:11:54;0.10;;;0.00;;
69937;SDS011;57248;47.320;15.998;2024-02-04T10:14:26;0.20;;;0.00;;
69937;SDS011;57248;47.320;15.998;2024-02-04T10:16:58;0.20;;;0.00;;
69937;SDS011;57248;47.320;15.998;2024-02-04T10:19:25;0.40;;;0.10;;
69937;SDS011;57248;47.320;15.998;2024-02-04T10:21:59;2.05;;;0.10;;
69937;SDS011;57248;47.320;15.998;2024-02-04T10:24:35;0.83;;;0.10;;
69937;SDS011;57248;47.320;15.998;2024-02-04T10:27:07;1.20;;;0.20;;
69937;SDS011;57248;47.320;15.998;2024-02-04T10:29:40;7.03;;;3.50;;
69937;SDS011;57248;47.320;15.998;2024-02-04T10:32:12;3.20;;;0.30;;
69937;SDS011;57248;47.320;15.998;2024-02-04T10:34:45;0.80;;;0.45;;
69937;SDS011;57248;47.320;15.998;2024-02-04T10:37:17;1.47;;;0.67;;
69937;SDS011;57248;47.320;15.998;2024-02-04T10:39:49;2.50;;;1.23;;
69937;SDS011;57248;47.320;15.998;2024-02-04T10:42:23;1.60;;;0.77;;
69937;SDS011;57248;47.320;15.998;2024-02-04T10:45:00;3.58;;;1.75;;
69937;SDS011;57248;47.320;15.998;2024-02-04T10:47:38;5.32;;;2.58;;
69937;SDS011;57248;47.320;15.998;2024-02-04T10:50:16;0.90;;;0.33;;
69937;SDS011;57248;47.320;15.998;2024-02-04T10:53:04;1.10;;;0.60;;
69937;SDS011;57248;47.320;15.998;2024-02-04T10:55:40;1.35;;;0.60;;
69937;SDS011;57248;47.320;15.998;2024-02-04T10:58:15;1.98;;;0.90;;
69937;SDS011;57248;47.320;15.998;2024-02-04T11:00:48;2.42;;;1.02;;
69937;SDS011;57248;47.320;15.998;2024-02-04T11:03:22;2.00;;;0.70;;
69937;SDS011;57248;47.320;15.998;2024-02-04T11:06:00;1.85;;;0.70;;
69937;SDS011;57248;47.320;15.998;2024-02-04T11:08:33;2.10;;;0.80;;
69937;SDS011;57248;47.320;15.998;2024-02-04T11:11:06;3.28;;;1.25;;
69937;SDS011;57248;47.320;15.998;2024-02-04T11:13:38;2.55;;;0.65;;
69937;SDS011;57248;47.320;15.998;2024-02-04T11:16:11;2.87;;;0.97;;
69937;SDS011;57248;47.320;15.998;2024-02-04T11:19:16;2.45;;;0.60;;
69937;SDS011;57248;47.320;15.998;2024-02-04T11:28:15;2.40;;;0.40;;
69937;SDS011;57248;47.320;15.998;2024-02-04T11:30:48;1.80;;;0.70;;
69937;SDS011;57248;47.320;15.998;2024-02-04T11:33:23;1.17;;;0.50;;
69937;SDS011;57248;47.320;15.998;2024-02-04T11:35:58;2.13;;;1.08;;
69937;SDS011;57248;47.320;15.998;2024-02-04T11:38:38;1.25;;;0.35;;
69937;SDS011;57248;47.320;15.998;2024-02-04T11:41:10;1.33;;;0.40;;
69937;SDS011;57248;47.320;15.998;2024-02-04T11:43:54;1.40;;;0.30;;
69937;SDS011;57248;47.320;15.998;2024-02-04T11:46:30;1.02;;;0.10;;
69937;SDS011;57248;47.320;15.998;2024-02-04T11:49:13;1.20;;;0.40;;
69937;SDS011;57248;47.320;15.998;2024-02-04T11:51:47;1.48;;;0.30;;
69937;SDS011;57248;47.320;15.998;2024-02-04T11:54:21;1.40;;;0.20;;
69937;SDS011;57248;47.320;15.998;2024-02-04T11:57:01;0.90;;;0.10;;
69937;SDS011;57248;47.320;15.998;2024-02-04T11:59:34;1.27;;;0.20;;
69937;SDS011;57248;47.320;15.998;2024-02-04T12:02:08;1.55;;;0.30;;
69937;SDS011;57248;47.320;15.998;2024-02-04T12:04:41;1.85;;;0.25;;
69937;SDS011;57248;47.320;15.998;2024-02-04T12:07:07;2.13;;;0.30;;
69937;SDS011;57248;47.320;15.998;2024-02-04T12:09:40;1.52;;;0.40;;
69937;SDS011;57248;47.320;15.998;2024-02-04T12:12:13;1.67;;;0.43;;
69937;SDS011;57248;47.320;15.998;2024-02-04T12:14:46;2.63;;;0.30;;
69937;SDS011;57248;47.320;15.998;2024-02-04T12:17:20;1.30;;;0.20;;
69937;SDS011;57248;47.320;15.998;2024-02-04T12:19:53;0.70;;;0.20;;
69937;SDS011;57248;47.320;15.998;2024-02-04T12:22:18;1.55;;;0.30;;
69937;SDS011;57248;47.320;15.998;2024-02-04T12:24:51;2.72;;;0.43;;
69937;SDS011;57248;47.320;15.998;2024-02-04T12:27:23;1.43;;;0.20;;
69937;SDS011;57248;47.320;15.998;2024-02-04T12:29:55;2.97;;;0.30;;
69937;SDS011;57248;47.320;15.998;2024-02-04T12:32:27;2.78;;;0.50;;
69937;SDS011;57248;47.320;15.998;2024-02-04T12:35:00;1.67;;;0.40;;
69937;SDS011;57248;47.320;15.998;2024-02-04T12:37:32;1.42;;;0.30;;
69937;SDS011;57248;47.320;15.998;2024-02-04T12:40:07;1.20;;;0.30;;
69937;SDS011;57248;47.320;15.998;2024-02-04T12:42:41;1.85;;;0.30;;
69937;SDS011;57248;47.320;15.998;2024-02-04T12:45:14;1.95;;;0.32;;
69937;SDS011;57248;47.320;15.998;2024-02-04T12:47:48;1.90;;;0.40;;
69937;SDS011;57248;47.320;15.998;2024-02-04T12:50:24;2.50;;;0.35;;
69937;SDS011;57248;47.320;15.998;2024-02-04T12:53:08;1.27;;;0.20;;
69937;SDS011;57248;47.320;15.998;2024-02-04T12:55:43;1.52;;;0.28;;
69937;SDS011;57248;47.320;15.998;2024-02-04T12:58:24;2.08;;;0.38;;
69937;SDS011;57248;47.320;15.998;2024-02-04T13:01:00;1.40;;;0.22;;
69937;SDS011;57248;47.320;15.998;2024-02-04T13:03:34;1.52;;;0.40;;
69937;SDS011;57248;47.320;15.998;2024-02-04T13:06:08;2.73;;;0.60;;
69937;SDS011;57248;47.320;15.998;2024-02-04T13:08:33;1.98;;;0.28;;
69937;SDS011;57248;47.320;15.998;2024-02-04T13:11:05;2.20;;;0.47;;
69937;SDS011;57248;47.320;15.998;2024-02-04T13:13:37;0.95;;;0.20;;
69937;SDS011;57248;47.320;15.998;2024-02-04T13:16:02;2.20;;;0.30;;
69937;SDS011;57248;47.320;15.998;2024-02-04T13:18:38;3.05;;;0.30;;
69937;SDS011;57248;47.320;15.998;2024-02-04T13:21:10;1.73;;;0.52;;
69937;SDS011;57248;47.320;15.998;2024-02-04T13:23:43;2.15;;;0.35;;
69937;SDS011;57248;47.320;15.998;2024-02-04T13:26:15;2.90;;;0.25;;
69937;SDS011;57248;47.320;15.998;2024-02-04T13:28:48;2.57;;;0.50;;
69937;SDS011;57248;47.320;15.998;2024-02-04T13:31:22;2.33;;;0.50;;
69937;SDS011;57248;47.320;15.998;2024-02-04T13:33:54;2.80;;;0.52;;
69937;SDS011;57248;47.320;15.998;2024-02-04T13:36:27;4.60;;;1.45;;
69937;SDS011;57248;47.320;15.998;2024-02-04T13:38:59;4.05;;;0.75;;
69937;SDS011;57248;47.320;15.998;2024-02-04T13:41:31;2.80;;;0.43;;
69937;SDS011;57248;47.320;15.998;2024-02-04T13:44:05;2.75;;;0.40;;
69937;SDS011;57248;47.320;15.998;2024-02-04T13:46:37;2.92;;;0.60;;
69937;SDS011;57248;47.320;15.998;2024-02-04T13:49:13;3.55;;;0.85;;
69937;SDS011;57248;47.320;15.998;2024-02-04T13:51:45;4.15;;;1.05;;
69937;SDS011;57248;47.320;15.998;2024-02-04T13:54:24;2.27;;;0.60;;
69937;SDS011;57248;47.320;15.998;2024-02-04T13:56:57;3.15;;;0.52;;
69937;SDS011;57248;47.320;15.998;2024-02-04T13:59:29;3.15;;;0.47;;
69937;SDS011;57248;47.320;15.998;2024-02-04T14:02:01;9.70;;;2.28;;
69937;SDS011;57248;47.320;15.998;2024-02-04T14:04:33;6.35;;;1.00;;
69937;SDS011;57248;47.320;15.998;2024-02-04T14:07:05;6.23;;;1.30;;
69937;SDS011;57248;47.320;15.998;2024-02-04T14:09:38;2.92;;;0.82;;
69937;SDS011;57248;47.320;15.998;2024-02-04T14:12:10;3.45;;;0.95;;
69937;SDS011;57248;47.320;15.998;2024-02-04T14:14:44;4.20;;;0.65;;
69937;SDS011;57248;47.320;15.998;2024-02-04T14:17:17;2.13;;;0.30;;
69937;SDS011;57248;47.320;15.998;2024-02-04T14:19:49;2.57;;;0.57;;
69937;SDS011;57248;47.320;15.998;2024-02-04T14:22:23;6.20;;;0.82;;
69937;SDS011;57248;47.320;15.998;2024-02-04T14:24:55;3.72;;;0.98;;
69937;SDS011;57248;47.320;15.998;2024-02-04T14:27:28;3.00;;;0.88;;
69937;SDS011;57248;47.320;15.998;2024-02-04T14:30:02;4.38;;;0.90;;
69937;SDS011;57248;47.320;15.998;2024-02-04T14:32:35;4.40;;;1.10;;
69937;SDS011;57248;47.320;15.998;2024-02-04T14:35:07;5.13;;;0.90;;
69937;SDS011;57248;47.320;15.998;2024-02-04T14:37:43;3.35;;;0.60;;
69937;SDS011;57248;47.320;15.998;2024-02-04T14:40:18;4.57;;;1.33;;
69937;SDS011;57248;47.320;15.998;2024-02-04T14:42:50;5.28;;;1.60;;
69937;SDS011;57248;47.320;15.998;2024-02-04T14:45:23;3.87;;;1.07;;
69937;SDS011;57248;47.320;15.998;2024-02-04T14:47:55;5.20;;;1.50;;
69937;SDS011;57248;47.320;15.998;2024-02-04T14:50:28;8.68;;;2.30;;
69937;SDS011;57248;47.320;15.998;2024-02-04T14:53:00;7.53;;;2.10;;
69937;SDS011;57248;47.320;15.998;2024-02-04T14:55:32;6.50;;;1.55;;
69937;SDS011;57248;47.320;15.998;2024-02-04T14:58:05;7.13;;;1.87;;
69937;SDS011;57248;47.320;15.998;2024-02-04T15:00:38;9.75;;;3.50;;
69937;SDS011;57248;47.320;15.998;2024-02-04T15:03:10;8.60;;;2.97;;
69937;SDS011;57248;47.320;15.998;2024-02-04T15:05:42;9.77;;;2.95;;
69937;SDS011;57248;47.320;15.998;2024-02-04T15:08:15;8.60;;;2.45;;
69937;SDS011;57248;47.320;15.998;2024-02-04T15:10:48;10.80;;;2.50;;
69937;SDS011;57248;47.320;15.998;2024-02-04T15:13:20;6.15;;;2.15;;